createdAt,value
2023-02-13T00:00:10.776Z,1027.06
2023-02-13T00:00:31.827Z,1027.04
2023-02-13T00:00:52.903Z,1027.04
2023-02-13T00:01:13.969Z,1027.06
2023-02-13T00:01:35.038Z,1027.08
2023-02-13T00:01:56.104Z,1027.10
2023-02-13T00:02:17.287Z,1027.10
2023-02-13T00:02:38.453Z,1027.08
2023-02-13T00:02:59.482Z,1027.08
2023-02-13T00:03:20.636Z,1027.10
2023-02-13T00:03:41.800Z,1027.08
2023-02-13T00:04:02.857Z,1027.10
2023-02-13T00:04:23.942Z,1027.10
2023-02-13T00:04:45.024Z,1027.08
2023-02-13T00:05:06.085Z,1027.04
2023-02-13T00:05:27.158Z,1027.08
2023-02-13T00:05:48.217Z,1027.04
2023-02-13T00:06:09.310Z,1027.06
2023-02-13T00:06:30.353Z,1027.06
2023-02-13T00:06:51.428Z,1027.08
2023-02-13T00:07:12.503Z,1027.06
2023-02-13T00:07:33.599Z,1027.08
2023-02-13T00:07:54.640Z,1027.04
2023-02-13T00:08:15.696Z,1027.08
2023-02-13T00:08:36.759Z,1027.04
2023-02-13T00:08:57.840Z,1027.08
2023-02-13T00:09:18.912Z,1027.04
2023-02-13T00:09:39.960Z,1027.06
2023-02-13T00:10:01.041Z,1027.06
2023-02-13T00:10:22.106Z,1027.04
2023-02-13T00:10:43.178Z,1027.06
2023-02-13T00:11:04.273Z,1027.04
2023-02-13T00:11:25.508Z,1027.06
2023-02-13T00:11:46.537Z,1027.04
2023-02-13T00:12:07.661Z,1027.06
2023-02-13T00:12:28.677Z,1027.06
2023-02-13T00:12:49.763Z,1027.06
2023-02-13T00:13:10.832Z,1027.06
2023-02-13T00:13:31.881Z,1027.04
2023-02-13T00:13:52.936Z,1027.06
2023-02-13T00:14:13.990Z,1027.04
2023-02-13T00:14:35.069Z,1027.06
2023-02-13T00:14:56.135Z,1027.04
2023-02-13T00:15:17.247Z,1027.02
2023-02-13T00:15:38.310Z,1027.04
2023-02-13T00:15:59.403Z,1027.02
2023-02-13T00:16:20.434Z,1027.02
2023-02-13T00:16:41.535Z,1027.02
2023-02-13T00:17:02.592Z,1027.02
2023-02-13T00:17:23.639Z,1027.00
2023-02-13T00:17:44.717Z,1027.00
2023-02-13T00:18:05.807Z,1027.02
2023-02-13T00:18:26.843Z,1027.00
2023-02-13T00:18:47.921Z,1027.00
2023-02-13T00:19:08.987Z,1026.96
2023-02-13T00:19:30.052Z,1027.00
2023-02-13T00:19:51.131Z,1026.98
2023-02-13T00:20:12.194Z,1027.00
2023-02-13T00:20:33.265Z,1026.98
2023-02-13T00:20:54.710Z,1026.98
2023-02-13T00:21:15.922Z,1026.98
2023-02-13T00:21:36.973Z,1026.98
2023-02-13T00:21:58.198Z,1026.98
2023-02-13T00:22:19.226Z,1027.02
2023-02-13T00:22:40.358Z,1027.00
2023-02-13T00:23:01.421Z,1026.98
2023-02-13T00:23:22.481Z,1027.00
2023-02-13T00:23:43.563Z,1026.98
2023-02-13T00:24:04.631Z,1027.00
2023-02-13T00:24:25.703Z,1027.02
2023-02-13T00:24:46.757Z,1027.02
2023-02-13T00:25:07.836Z,1026.98
2023-02-13T00:25:28.873Z,1027.00
2023-02-13T00:25:49.935Z,1027.00
2023-02-13T00:26:10.972Z,1027.02
2023-02-13T00:26:32.029Z,1027.02
2023-02-13T00:26:53.100Z,1027.04
2023-02-13T00:27:14.220Z,1027.04
2023-02-13T00:27:35.274Z,1027.06
2023-02-13T00:27:56.372Z,1027.04
2023-02-13T00:28:17.539Z,1027.04
2023-02-13T00:28:38.677Z,1027.06
2023-02-13T00:28:59.758Z,1027.06
2023-02-13T00:29:20.818Z,1027.06
2023-02-13T00:29:41.870Z,1027.06
2023-02-13T00:30:02.942Z,1027.04
2023-02-13T00:30:24.006Z,1027.06
2023-02-13T00:30:45.106Z,1027.06
2023-02-13T00:31:06.282Z,1027.04
2023-02-13T00:31:27.511Z,1027.06
2023-02-13T00:31:48.665Z,1027.02
2023-02-13T00:32:09.958Z,1027.02
2023-02-13T00:32:31.067Z,1027.04
2023-02-13T00:32:52.117Z,1027.04
2023-02-13T00:33:13.203Z,1027.02
2023-02-13T00:33:34.319Z,1027.04
2023-02-13T00:33:55.379Z,1027.02
2023-02-13T00:34:16.425Z,1027.04
2023-02-13T00:34:37.502Z,1027.02
2023-02-13T00:34:58.555Z,1027.02
2023-02-13T00:35:19.615Z,1027.02
2023-02-13T00:35:40.669Z,1027.02
2023-02-13T00:36:01.733Z,1027.04
2023-02-13T00:36:22.793Z,1027.04
2023-02-13T00:36:43.869Z,1027.00
2023-02-13T00:37:04.952Z,1027.04
2023-02-13T00:37:25.992Z,1027.04
2023-02-13T00:37:47.079Z,1027.00
2023-02-13T00:38:08.160Z,1027.02
2023-02-13T00:38:29.235Z,1027.02
2023-02-13T00:38:50.303Z,1027.00
2023-02-13T00:39:11.343Z,1027.00
2023-02-13T00:39:32.420Z,1027.02
2023-02-13T00:39:53.482Z,1027.00
2023-02-13T00:40:14.572Z,1027.00
2023-02-13T00:40:35.630Z,1027.02
2023-02-13T00:40:57.042Z,1027.00
2023-02-13T00:41:18.253Z,1027.00
2023-02-13T00:41:39.314Z,1027.00
2023-02-13T00:42:00.370Z,1027.02
2023-02-13T00:42:21.428Z,1027.02
2023-02-13T00:42:42.502Z,1026.96
2023-02-13T00:43:03.587Z,1027.00
2023-02-13T00:43:24.628Z,1027.00
2023-02-13T00:43:45.736Z,1026.96
2023-02-13T00:44:06.779Z,1026.96
2023-02-13T00:44:27.849Z,1026.98
2023-02-13T00:44:48.894Z,1026.96
2023-02-13T00:45:09.967Z,1026.94
2023-02-13T00:45:31.038Z,1026.94
2023-02-13T00:45:52.147Z,1026.96
2023-02-13T00:46:13.178Z,1026.94
2023-02-13T00:46:34.303Z,1027.00
2023-02-13T00:46:55.343Z,1026.98
2023-02-13T00:47:16.394Z,1026.96
2023-02-13T00:47:37.457Z,1026.96
2023-02-13T00:47:58.533Z,1026.94
2023-02-13T00:48:19.741Z,1026.94
2023-02-13T00:48:40.817Z,1026.96
2023-02-13T00:49:01.874Z,1026.98
2023-02-13T00:49:22.950Z,1026.96
2023-02-13T00:49:43.983Z,1026.94
2023-02-13T00:50:05.052Z,1026.96
2023-02-13T00:50:26.102Z,1026.94
2023-02-13T00:50:47.174Z,1026.94
2023-02-13T00:51:08.229Z,1026.96
2023-02-13T00:51:29.286Z,1026.96
2023-02-13T00:51:50.352Z,1026.96
2023-02-13T00:52:11.439Z,1026.96
2023-02-13T00:52:32.473Z,1026.96
2023-02-13T00:52:53.542Z,1026.96
2023-02-13T00:53:14.623Z,1026.96
2023-02-13T00:53:35.877Z,1026.98
2023-02-13T00:53:56.925Z,1026.98
2023-02-13T00:54:17.997Z,1026.96
2023-02-13T00:54:39.055Z,1026.96
2023-02-13T00:55:00.120Z,1026.98
2023-02-13T00:55:21.183Z,1026.96
2023-02-13T00:55:42.243Z,1026.94
2023-02-13T00:56:03.325Z,1026.94
2023-02-13T00:56:24.357Z,1027.00
2023-02-13T00:56:45.418Z,1026.96
2023-02-13T00:57:06.509Z,1026.94
2023-02-13T00:57:27.550Z,1026.96
2023-02-13T00:57:48.674Z,1026.98
2023-02-13T00:58:09.824Z,1026.96
2023-02-13T00:58:30.971Z,1026.98
2023-02-13T00:58:52.128Z,1026.98
2023-02-13T00:59:13.167Z,1026.98
2023-02-13T00:59:34.219Z,1026.98
2023-02-13T00:59:55.305Z,1026.98
2023-02-13T01:00:16.356Z,1026.98
2023-02-13T01:00:37.434Z,1026.96
2023-02-13T01:00:58.766Z,1026.92
2023-02-13T01:01:20.051Z,1026.92
2023-02-13T01:01:41.204Z,1026.96
2023-02-13T01:02:02.278Z,1026.96
2023-02-13T01:02:23.460Z,1026.94
2023-02-13T01:02:44.489Z,1026.96
2023-02-13T01:03:05.567Z,1026.96
2023-02-13T01:03:26.645Z,1026.94
2023-02-13T01:03:47.814Z,1026.96
2023-02-13T01:04:08.945Z,1026.94
2023-02-13T01:04:30.011Z,1026.96
2023-02-13T01:04:51.029Z,1026.96
2023-02-13T01:05:12.085Z,1026.96
2023-02-13T01:05:33.143Z,1026.96
2023-02-13T01:05:54.199Z,1026.90
2023-02-13T01:06:15.295Z,1026.90
2023-02-13T01:06:36.362Z,1026.90
2023-02-13T01:06:57.506Z,1026.90
2023-02-13T01:07:18.535Z,1026.96
2023-02-13T01:07:39.599Z,1026.88
2023-02-13T01:08:00.641Z,1026.88
2023-02-13T01:08:21.693Z,1026.88
2023-02-13T01:08:42.769Z,1026.88
2023-02-13T01:09:03.829Z,1026.90
2023-02-13T01:09:24.922Z,1026.90
2023-02-13T01:09:45.992Z,1026.90
2023-02-13T01:10:07.051Z,1026.90
2023-02-13T01:10:28.125Z,1026.88
2023-02-13T01:10:49.174Z,1026.88
2023-02-13T01:11:10.237Z,1026.90
2023-02-13T01:11:31.283Z,1026.90
2023-02-13T01:11:52.354Z,1026.90
2023-02-13T01:12:13.411Z,1026.88
2023-02-13T01:12:34.464Z,1026.90
2023-02-13T01:12:55.527Z,1026.88
2023-02-13T01:13:16.626Z,1026.88
2023-02-13T01:13:37.673Z,1026.90
2023-02-13T01:13:58.743Z,1026.90
2023-02-13T01:14:19.794Z,1026.90
2023-02-13T01:14:41.010Z,1026.90
2023-02-13T01:15:02.068Z,1026.90
2023-02-13T01:15:23.141Z,1026.92
2023-02-13T01:15:44.198Z,1026.88
2023-02-13T01:16:05.388Z,1026.88
2023-02-13T01:16:26.562Z,1026.90
2023-02-13T01:16:47.610Z,1026.90
2023-02-13T01:17:08.663Z,1026.86
2023-02-13T01:17:29.731Z,1026.92
2023-02-13T01:17:50.795Z,1026.86
2023-02-13T01:18:11.869Z,1026.86
2023-02-13T01:18:33.011Z,1026.86
2023-02-13T01:18:54.064Z,1026.86
2023-02-13T01:19:15.124Z,1026.90
2023-02-13T01:19:36.211Z,1026.84
2023-02-13T01:19:57.407Z,1026.86
2023-02-13T01:20:18.468Z,1026.86
2023-02-13T01:20:39.536Z,1026.86
2023-02-13T01:21:00.697Z,1026.86
2023-02-13T01:21:21.714Z,1026.86
2023-02-13T01:21:42.792Z,1026.88
2023-02-13T01:22:03.840Z,1026.86
2023-02-13T01:22:24.936Z,1026.88
2023-02-13T01:22:46.046Z,1026.88
2023-02-13T01:23:07.078Z,1026.86
2023-02-13T01:23:28.137Z,1026.86
2023-02-13T01:23:49.211Z,1026.82
2023-02-13T01:24:10.276Z,1026.86
2023-02-13T01:24:31.339Z,1026.86
2023-02-13T01:24:52.430Z,1026.82
2023-02-13T01:25:13.524Z,1026.82
2023-02-13T01:25:34.592Z,1026.80
2023-02-13T01:25:55.644Z,1026.82
2023-02-13T01:26:16.693Z,1026.84
2023-02-13T01:26:37.775Z,1026.82
2023-02-13T01:26:58.838Z,1026.82
2023-02-13T01:27:19.887Z,1026.82
2023-02-13T01:27:40.956Z,1026.82
2023-02-13T01:28:02.066Z,1026.82
2023-02-13T01:28:23.175Z,1026.82
2023-02-13T01:28:44.233Z,1026.82
2023-02-13T01:29:05.302Z,1026.84
2023-02-13T01:29:26.347Z,1026.84
2023-02-13T01:29:47.403Z,1026.84
2023-02-13T01:30:08.446Z,1026.82
2023-02-13T01:30:29.604Z,1026.84
2023-02-13T01:30:50.729Z,1026.88
2023-02-13T01:31:11.936Z,1026.86
2023-02-13T01:31:33.238Z,1026.86
2023-02-13T01:31:54.426Z,1026.86
2023-02-13T01:32:15.626Z,1026.84
2023-02-13T01:32:36.704Z,1026.84
2023-02-13T01:32:57.778Z,1026.84
2023-02-13T01:33:18.819Z,1026.84
2023-02-13T01:33:39.891Z,1026.84
2023-02-13T01:34:00.930Z,1026.84
2023-02-13T01:34:21.981Z,1026.84
2023-02-13T01:34:43.049Z,1026.84
2023-02-13T01:35:04.131Z,1026.80
2023-02-13T01:35:25.174Z,1026.80
2023-02-13T01:35:46.281Z,1026.84
2023-02-13T01:36:07.340Z,1026.80
2023-02-13T01:36:28.430Z,1026.84
2023-02-13T01:36:49.496Z,1026.80
2023-02-13T01:37:10.560Z,1026.78
2023-02-13T01:37:31.613Z,1026.80
2023-02-13T01:37:52.683Z,1026.80
2023-02-13T01:38:13.739Z,1026.78
2023-02-13T01:38:34.795Z,1026.80
2023-02-13T01:38:55.925Z,1026.76
2023-02-13T01:39:16.949Z,1026.78
2023-02-13T01:39:38.004Z,1026.78
2023-02-13T01:39:59.082Z,1026.78
2023-02-13T01:40:20.151Z,1026.78
2023-02-13T01:40:41.196Z,1026.75
2023-02-13T01:41:02.287Z,1026.76
2023-02-13T01:41:23.359Z,1026.76
2023-02-13T01:41:44.404Z,1026.76
2023-02-13T01:42:05.503Z,1026.76
2023-02-13T01:42:26.548Z,1026.78
2023-02-13T01:42:47.608Z,1026.78
2023-02-13T01:43:08.668Z,1026.76
2023-02-13T01:43:29.751Z,1026.78
2023-02-13T01:43:50.796Z,1026.78
2023-02-13T01:44:11.858Z,1026.76
2023-02-13T01:44:32.950Z,1026.78
2023-02-13T01:44:53.997Z,1026.78
2023-02-13T01:45:15.068Z,1026.78
2023-02-13T01:45:36.122Z,1026.78
2023-02-13T01:45:57.261Z,1026.73
2023-02-13T01:46:18.342Z,1026.73
2023-02-13T01:46:39.456Z,1026.75
2023-02-13T01:47:00.502Z,1026.73
2023-02-13T01:47:21.589Z,1026.75
2023-02-13T01:47:44.565Z,1026.73
2023-02-13T01:48:06.180Z,1026.73
2023-02-13T01:48:27.273Z,1026.75
2023-02-13T01:48:48.324Z,1026.73
2023-02-13T01:49:09.425Z,1026.75
2023-02-13T01:49:30.736Z,1026.73
2023-02-13T01:49:51.817Z,1026.71
2023-02-13T01:50:12.881Z,1026.71
2023-02-13T01:50:33.963Z,1026.73
2023-02-13T01:50:55.259Z,1026.71
2023-02-13T01:51:16.354Z,1026.71
2023-02-13T01:51:37.437Z,1026.71
2023-02-13T01:51:58.493Z,1026.71
2023-02-13T01:52:19.634Z,1026.73
2023-02-13T01:52:40.690Z,1026.73
2023-02-13T01:53:01.727Z,1026.71
2023-02-13T01:53:22.792Z,1026.71
2023-02-13T01:53:43.847Z,1026.73
2023-02-13T01:54:04.997Z,1026.73
2023-02-13T01:54:26.024Z,1026.69
2023-02-13T01:54:47.080Z,1026.71
2023-02-13T01:55:08.137Z,1026.73
2023-02-13T01:55:29.198Z,1026.73
2023-02-13T01:55:50.292Z,1026.71
2023-02-13T01:56:11.308Z,1026.73
2023-02-13T01:56:32.369Z,1026.73
2023-02-13T01:56:53.617Z,1026.73
2023-02-13T01:57:14.714Z,1026.71
2023-02-13T01:57:35.772Z,1026.73
2023-02-13T01:57:56.888Z,1026.71
2023-02-13T01:58:18.044Z,1026.71
2023-02-13T01:58:39.077Z,1026.73
2023-02-13T01:59:00.119Z,1026.67
2023-02-13T01:59:21.196Z,1026.73
2023-02-13T01:59:42.236Z,1026.65
2023-02-13T02:00:03.313Z,1026.67
2023-02-13T02:00:24.374Z,1026.65
2023-02-13T02:00:45.429Z,1026.67
2023-02-13T02:01:06.490Z,1026.67
2023-02-13T02:01:27.609Z,1026.67
2023-02-13T02:01:48.740Z,1026.65
2023-02-13T02:02:10.149Z,1026.65
2023-02-13T02:02:31.259Z,1026.67
2023-02-13T02:02:52.404Z,1026.63
2023-02-13T02:03:13.491Z,1026.65
2023-02-13T02:03:34.560Z,1026.67
2023-02-13T02:03:55.621Z,1026.63
2023-02-13T02:04:16.678Z,1026.65
2023-02-13T02:04:37.743Z,1026.63
2023-02-13T02:04:58.797Z,1026.63
2023-02-13T02:05:19.864Z,1026.63
2023-02-13T02:05:40.918Z,1026.65
2023-02-13T02:06:01.973Z,1026.65
2023-02-13T02:06:23.675Z,1026.65
2023-02-13T02:06:44.716Z,1026.63
2023-02-13T02:07:05.768Z,1026.65
2023-02-13T02:07:26.857Z,1026.59
2023-02-13T02:07:47.937Z,1026.61
2023-02-13T02:08:08.971Z,1026.63
2023-02-13T02:08:30.041Z,1026.61
2023-02-13T02:08:51.107Z,1026.63
2023-02-13T02:09:12.166Z,1026.61
2023-02-13T02:09:33.209Z,1026.63
2023-02-13T02:09:54.291Z,1026.61
2023-02-13T02:10:15.344Z,1026.63
2023-02-13T02:10:36.406Z,1026.63
2023-02-13T02:10:57.839Z,1026.63
2023-02-13T02:11:19.032Z,1026.61
2023-02-13T02:11:40.093Z,1026.63
2023-02-13T02:12:01.192Z,1026.61
2023-02-13T02:12:22.258Z,1026.63
2023-02-13T02:12:43.313Z,1026.63
2023-02-13T02:13:04.396Z,1026.65
2023-02-13T02:13:25.442Z,1026.67
2023-02-13T02:13:46.524Z,1026.63
2023-02-13T02:14:07.560Z,1026.67
2023-02-13T02:14:28.656Z,1026.63
2023-02-13T02:14:49.701Z,1026.63
2023-02-13T02:15:10.763Z,1026.65
2023-02-13T02:15:31.916Z,1026.63
2023-02-13T02:15:53.005Z,1026.63
2023-02-13T02:16:14.121Z,1026.65
2023-02-13T02:16:35.165Z,1026.63
2023-02-13T02:16:56.214Z,1026.63
2023-02-13T02:17:17.300Z,1026.67
2023-02-13T02:17:38.393Z,1026.65
2023-02-13T02:17:59.475Z,1026.69
2023-02-13T02:18:20.552Z,1026.67
2023-02-13T02:18:41.643Z,1026.69
2023-02-13T02:19:02.701Z,1026.67
2023-02-13T02:19:23.765Z,1026.69
2023-02-13T02:19:44.822Z,1026.69
2023-02-13T02:20:05.882Z,1026.67
2023-02-13T02:20:26.941Z,1026.67
2023-02-13T02:20:48.047Z,1026.63
2023-02-13T02:21:09.104Z,1026.65
2023-02-13T02:21:30.149Z,1026.65
2023-02-13T02:21:51.203Z,1026.65
2023-02-13T02:22:12.307Z,1026.63
2023-02-13T02:22:33.337Z,1026.65
2023-02-13T02:22:54.381Z,1026.65
2023-02-13T02:23:15.510Z,1026.67
2023-02-13T02:23:36.562Z,1026.65
2023-02-13T02:23:57.621Z,1026.67
2023-02-13T02:24:18.667Z,1026.69
2023-02-13T02:24:39.733Z,1026.67
2023-02-13T02:25:00.791Z,1026.69
2023-02-13T02:25:21.861Z,1026.67
2023-02-13T02:25:42.924Z,1026.71
2023-02-13T02:26:04.017Z,1026.69
2023-02-13T02:26:25.110Z,1026.67
2023-02-13T02:26:46.127Z,1026.67
2023-02-13T02:27:07.189Z,1026.69
2023-02-13T02:27:28.249Z,1026.65
2023-02-13T02:27:49.316Z,1026.63
2023-02-13T02:28:10.458Z,1026.65
2023-02-13T02:28:31.617Z,1026.67
2023-02-13T02:28:52.778Z,1026.65
2023-02-13T02:29:13.838Z,1026.65
2023-02-13T02:29:34.874Z,1026.65
2023-02-13T02:29:55.937Z,1026.65
2023-02-13T02:30:17.058Z,1026.61
2023-02-13T02:30:38.139Z,1026.63
2023-02-13T02:30:59.592Z,1026.63
2023-02-13T02:31:20.924Z,1026.61
2023-02-13T02:31:41.999Z,1026.61
2023-02-13T02:32:03.083Z,1026.59
2023-02-13T02:32:24.162Z,1026.61
2023-02-13T02:32:45.265Z,1026.61
2023-02-13T02:33:06.312Z,1026.61
2023-02-13T02:33:27.351Z,1026.61
2023-02-13T02:33:48.461Z,1026.55
2023-02-13T02:34:09.555Z,1026.59
2023-02-13T02:34:30.658Z,1026.57
2023-02-13T02:34:51.703Z,1026.57
2023-02-13T02:35:12.755Z,1026.55
2023-02-13T02:35:33.860Z,1026.57
2023-02-13T02:35:54.897Z,1026.55
2023-02-13T02:36:15.978Z,1026.57
2023-02-13T02:36:37.037Z,1026.57
2023-02-13T02:36:58.109Z,1026.57
2023-02-13T02:37:19.179Z,1026.57
2023-02-13T02:37:40.348Z,1026.55
2023-02-13T02:38:01.405Z,1026.55
2023-02-13T02:38:22.460Z,1026.57
2023-02-13T02:38:43.549Z,1026.59
2023-02-13T02:39:04.637Z,1026.57
2023-02-13T02:39:25.733Z,1026.59
2023-02-13T02:39:46.750Z,1026.57
2023-02-13T02:40:07.821Z,1026.57
2023-02-13T02:40:28.889Z,1026.53
2023-02-13T02:40:49.928Z,1026.55
2023-02-13T02:41:11.080Z,1026.53
2023-02-13T02:41:32.114Z,1026.55
2023-02-13T02:41:53.174Z,1026.57
2023-02-13T02:42:14.234Z,1026.57
2023-02-13T02:42:35.283Z,1026.57
2023-02-13T02:42:56.395Z,1026.57
2023-02-13T02:43:17.446Z,1026.57
2023-02-13T02:43:38.499Z,1026.55
2023-02-13T02:43:59.577Z,1026.59
2023-02-13T02:44:20.637Z,1026.57
2023-02-13T02:44:41.729Z,1026.59
2023-02-13T02:45:02.793Z,1026.57
2023-02-13T02:45:23.848Z,1026.59
2023-02-13T02:45:44.912Z,1026.59
2023-02-13T02:46:06.033Z,1026.59
2023-02-13T02:46:27.120Z,1026.57
2023-02-13T02:46:48.164Z,1026.61
2023-02-13T02:47:09.230Z,1026.59
2023-02-13T02:47:30.277Z,1026.61
2023-02-13T02:47:51.400Z,1026.59
2023-02-13T02:48:12.417Z,1026.57
2023-02-13T02:48:33.472Z,1026.59
2023-02-13T02:48:54.529Z,1026.59
2023-02-13T02:49:15.623Z,1026.61
2023-02-13T02:49:36.705Z,1026.63
2023-02-13T02:49:57.758Z,1026.63
2023-02-13T02:50:18.869Z,1026.65
2023-02-13T02:50:39.892Z,1026.63
2023-02-13T02:51:00.959Z,1026.65
2023-02-13T02:51:22.030Z,1026.63
2023-02-13T02:51:43.069Z,1026.67
2023-02-13T02:52:04.145Z,1026.65
2023-02-13T02:52:25.216Z,1026.67
2023-02-13T02:52:46.273Z,1026.65
2023-02-13T02:53:07.328Z,1026.65
2023-02-13T02:53:28.382Z,1026.65
2023-02-13T02:53:49.452Z,1026.67
2023-02-13T02:54:10.498Z,1026.69
2023-02-13T02:54:31.576Z,1026.63
2023-02-13T02:54:52.641Z,1026.65
2023-02-13T02:55:13.705Z,1026.63
2023-02-13T02:55:34.812Z,1026.65
2023-02-13T02:55:55.935Z,1026.67
2023-02-13T02:56:16.966Z,1026.65
2023-02-13T02:56:38.029Z,1026.65
2023-02-13T02:56:59.070Z,1026.65
2023-02-13T02:57:20.173Z,1026.67
2023-02-13T02:57:41.259Z,1026.63
2023-02-13T02:58:02.322Z,1026.61
2023-02-13T02:58:23.379Z,1026.65
2023-02-13T02:58:44.420Z,1026.65
2023-02-13T02:59:05.557Z,1026.63
2023-02-13T02:59:26.627Z,1026.65
2023-02-13T02:59:47.665Z,1026.63
2023-02-13T03:00:08.760Z,1026.63
2023-02-13T03:00:29.908Z,1026.65
2023-02-13T03:00:51.041Z,1026.63
2023-02-13T03:01:12.095Z,1026.65
2023-02-13T03:01:33.158Z,1026.61
2023-02-13T03:01:54.211Z,1026.63
2023-02-13T03:02:15.286Z,1026.61
2023-02-13T03:02:36.361Z,1026.63
2023-02-13T03:02:57.507Z,1026.61
2023-02-13T03:03:18.553Z,1026.63
2023-02-13T03:03:39.610Z,1026.63
2023-02-13T03:04:00.686Z,1026.65
2023-02-13T03:04:21.825Z,1026.67
2023-02-13T03:04:42.906Z,1026.65
2023-02-13T03:05:03.961Z,1026.67
2023-02-13T03:05:25.104Z,1026.65
2023-02-13T03:05:46.146Z,1026.63
2023-02-13T03:06:07.211Z,1026.67
2023-02-13T03:06:28.260Z,1026.63
2023-02-13T03:06:49.361Z,1026.67
2023-02-13T03:07:10.444Z,1026.65
2023-02-13T03:07:31.496Z,1026.65
2023-02-13T03:07:52.562Z,1026.63
2023-02-13T03:08:13.601Z,1026.65
2023-02-13T03:08:34.656Z,1026.67
2023-02-13T03:08:55.720Z,1026.71
2023-02-13T03:09:16.823Z,1026.65
2023-02-13T03:09:37.859Z,1026.63
2023-02-13T03:09:58.947Z,1026.63
2023-02-13T03:10:19.984Z,1026.67
2023-02-13T03:10:41.052Z,1026.69
2023-02-13T03:11:02.115Z,1026.67
2023-02-13T03:11:23.174Z,1026.69
2023-02-13T03:11:44.243Z,1026.71
2023-02-13T03:12:05.300Z,1026.69
2023-02-13T03:12:26.357Z,1026.71
2023-02-13T03:12:47.490Z,1026.71
2023-02-13T03:13:08.518Z,1026.71
2023-02-13T03:13:29.598Z,1026.73
2023-02-13T03:13:50.635Z,1026.71
2023-02-13T03:14:11.745Z,1026.71
2023-02-13T03:14:32.798Z,1026.75
2023-02-13T03:14:53.855Z,1026.71
2023-02-13T03:15:14.924Z,1026.69
2023-02-13T03:15:35.998Z,1026.71
2023-02-13T03:15:57.121Z,1026.71
2023-02-13T03:16:18.183Z,1026.69
2023-02-13T03:16:39.423Z,1026.71
2023-02-13T03:17:00.501Z,1026.71
2023-02-13T03:17:21.555Z,1026.75
2023-02-13T03:17:42.638Z,1026.69
2023-02-13T03:18:03.731Z,1026.71
2023-02-13T03:18:24.807Z,1026.69
2023-02-13T03:18:45.890Z,1026.71
2023-02-13T03:19:06.924Z,1026.71
2023-02-13T03:19:28.003Z,1026.69
2023-02-13T03:19:49.050Z,1026.71
2023-02-13T03:20:10.156Z,1026.69
2023-02-13T03:20:31.193Z,1026.69
2023-02-13T03:20:52.252Z,1026.73
2023-02-13T03:21:13.499Z,1026.71
2023-02-13T03:21:34.536Z,1026.73
2023-02-13T03:21:55.627Z,1026.73
2023-02-13T03:22:16.675Z,1026.71
2023-02-13T03:22:37.736Z,1026.73
2023-02-13T03:22:58.806Z,1026.71
2023-02-13T03:23:19.899Z,1026.75
2023-02-13T03:23:40.937Z,1026.69
2023-02-13T03:24:01.998Z,1026.69
2023-02-13T03:24:23.072Z,1026.73
2023-02-13T03:24:44.128Z,1026.71
2023-02-13T03:25:05.179Z,1026.73
2023-02-13T03:25:26.248Z,1026.67
2023-02-13T03:25:47.320Z,1026.69
2023-02-13T03:26:08.363Z,1026.71
2023-02-13T03:26:29.445Z,1026.67
2023-02-13T03:26:50.845Z,1026.67
2023-02-13T03:27:11.917Z,1026.69
2023-02-13T03:27:32.959Z,1026.65
2023-02-13T03:27:54.020Z,1026.67
2023-02-13T03:28:15.124Z,1026.65
2023-02-13T03:28:36.253Z,1026.67
2023-02-13T03:28:57.309Z,1026.65
2023-02-13T03:29:18.408Z,1026.65
2023-02-13T03:29:39.573Z,1026.65
2023-02-13T03:30:01.029Z,1026.69
2023-02-13T03:30:22.134Z,1026.67
2023-02-13T03:30:43.248Z,1026.65
2023-02-13T03:31:04.361Z,1026.67
2023-02-13T03:31:25.450Z,1026.67
2023-02-13T03:31:46.606Z,1026.69
2023-02-13T03:32:07.657Z,1026.69
2023-02-13T03:32:28.724Z,1026.67
2023-02-13T03:32:49.780Z,1026.67
2023-02-13T03:33:10.844Z,1026.69
2023-02-13T03:33:31.903Z,1026.65
2023-02-13T03:33:52.960Z,1026.69
2023-02-13T03:34:14.065Z,1026.69
2023-02-13T03:34:35.112Z,1026.71
2023-02-13T03:34:56.261Z,1026.69
2023-02-13T03:35:17.297Z,1026.65
2023-02-13T03:35:38.348Z,1026.67
2023-02-13T03:35:59.423Z,1026.67
2023-02-13T03:36:20.474Z,1026.69
2023-02-13T03:36:41.695Z,1026.69
2023-02-13T03:37:02.792Z,1026.71
2023-02-13T03:37:23.825Z,1026.71
2023-02-13T03:37:44.885Z,1026.73
2023-02-13T03:38:06.009Z,1026.69
2023-02-13T03:38:27.042Z,1026.73
2023-02-13T03:38:48.140Z,1026.73
2023-02-13T03:39:09.191Z,1026.73
2023-02-13T03:39:30.285Z,1026.71
2023-02-13T03:39:51.330Z,1026.73
2023-02-13T03:40:12.398Z,1026.71
2023-02-13T03:40:33.480Z,1026.71
2023-02-13T03:40:54.787Z,1026.71
2023-02-13T03:41:15.979Z,1026.73
2023-02-13T03:41:37.015Z,1026.73
2023-02-13T03:41:58.243Z,1026.69
2023-02-13T03:42:19.302Z,1026.73
2023-02-13T03:42:40.369Z,1026.71
2023-02-13T03:43:01.461Z,1026.71
2023-02-13T03:43:22.541Z,1026.69
2023-02-13T03:43:43.585Z,1026.69
2023-02-13T03:44:04.683Z,1026.71
2023-02-13T03:44:25.725Z,1026.69
2023-02-13T03:44:46.760Z,1026.71
2023-02-13T03:45:07.818Z,1026.69
2023-02-13T03:45:28.887Z,1026.71
2023-02-13T03:45:49.999Z,1026.69
2023-02-13T03:46:11.123Z,1026.71
2023-02-13T03:46:32.172Z,1026.71
2023-02-13T03:46:53.236Z,1026.71
2023-02-13T03:47:14.321Z,1026.69
2023-02-13T03:47:35.380Z,1026.73
2023-02-13T03:47:56.430Z,1026.75
2023-02-13T03:48:17.495Z,1026.71
2023-02-13T03:48:38.675Z,1026.75
2023-02-13T03:48:59.705Z,1026.75
2023-02-13T03:49:20.745Z,1026.73
2023-02-13T03:49:41.805Z,1026.76
2023-02-13T03:50:02.884Z,1026.75
2023-02-13T03:50:23.932Z,1026.76
2023-02-13T03:50:44.984Z,1026.73
2023-02-13T03:51:06.120Z,1026.75
2023-02-13T03:51:27.166Z,1026.75
2023-02-13T03:51:48.236Z,1026.76
2023-02-13T03:52:09.272Z,1026.75
2023-02-13T03:52:30.364Z,1026.76
2023-02-13T03:52:51.423Z,1026.75
2023-02-13T03:53:12.628Z,1026.78
2023-02-13T03:53:33.640Z,1026.78
2023-02-13T03:53:54.710Z,1026.78
2023-02-13T03:54:15.786Z,1026.80
2023-02-13T03:54:36.823Z,1026.78
2023-02-13T03:54:57.910Z,1026.78
2023-02-13T03:55:18.951Z,1026.78
2023-02-13T03:55:40.025Z,1026.84
2023-02-13T03:56:01.067Z,1026.80
2023-02-13T03:56:22.133Z,1026.82
2023-02-13T03:56:43.188Z,1026.84
2023-02-13T03:57:04.297Z,1026.80
2023-02-13T03:57:25.337Z,1026.84
2023-02-13T03:57:46.418Z,1026.80
2023-02-13T03:58:07.475Z,1026.82
2023-02-13T03:58:28.548Z,1026.84
2023-02-13T03:58:49.607Z,1026.80
2023-02-13T03:59:10.719Z,1026.84
2023-02-13T03:59:31.771Z,1026.82
2023-02-13T03:59:52.842Z,1026.82
2023-02-13T04:00:13.885Z,1026.82
2023-02-13T04:00:34.947Z,1026.82
2023-02-13T04:00:56.501Z,1026.82
2023-02-13T04:01:17.817Z,1026.84
2023-02-13T04:01:38.878Z,1026.82
2023-02-13T04:02:00.118Z,1026.82
2023-02-13T04:02:21.224Z,1026.82
2023-02-13T04:02:42.249Z,1026.82
2023-02-13T04:03:03.344Z,1026.84
2023-02-13T04:03:24.400Z,1026.84
2023-02-13T04:03:45.450Z,1026.84
2023-02-13T04:04:06.560Z,1026.82
2023-02-13T04:04:27.614Z,1026.82
2023-02-13T04:04:48.666Z,1026.84
2023-02-13T04:05:09.723Z,1026.82
2023-02-13T04:05:30.789Z,1026.84
2023-02-13T04:05:51.941Z,1026.84
2023-02-13T04:06:12.995Z,1026.84
2023-02-13T04:06:34.046Z,1026.80
2023-02-13T04:06:55.100Z,1026.84
2023-02-13T04:07:16.156Z,1026.80
2023-02-13T04:07:37.215Z,1026.80
2023-02-13T04:07:58.273Z,1026.82
2023-02-13T04:08:19.553Z,1026.84
2023-02-13T04:08:40.584Z,1026.82
2023-02-13T04:09:01.663Z,1026.82
2023-02-13T04:09:22.757Z,1026.82
2023-02-13T04:09:43.833Z,1026.84
2023-02-13T04:10:04.880Z,1026.84
2023-02-13T04:10:25.941Z,1026.84
2023-02-13T04:10:46.995Z,1026.84
2023-02-13T04:11:08.053Z,1026.84
2023-02-13T04:11:29.125Z,1026.84
2023-02-13T04:11:50.183Z,1026.84
2023-02-13T04:12:11.244Z,1026.84
2023-02-13T04:12:32.507Z,1026.86
2023-02-13T04:12:53.566Z,1026.84
2023-02-13T04:13:14.628Z,1026.84
2023-02-13T04:13:35.712Z,1026.86
2023-02-13T04:13:56.774Z,1026.86
2023-02-13T04:14:17.841Z,1026.84
2023-02-13T04:14:38.960Z,1026.84
2023-02-13T04:15:00.008Z,1026.86